createdAt,value
2018-03-15T00:01:00.133Z,76.65
2018-03-15T00:01:39.521Z,76.93
2018-03-15T00:02:19.794Z,76.65
2018-03-15T00:03:00.201Z,76.65
2018-03-15T00:03:40.946Z,77.09
2018-03-15T00:04:21.173Z,77.47
2018-03-15T00:05:01.570Z,78.13
2018-03-15T00:05:42.016Z,77.75
2018-03-15T00:06:22.464Z,77.89
2018-03-15T00:07:02.934Z,77.84
2018-03-15T00:07:43.259Z,76.93
2018-03-15T00:08:23.675Z,76.71
2018-03-15T00:09:04.095Z,77.37
2018-03-15T00:09:44.433Z,76.9
2018-03-15T00:10:24.930Z,77.37
2018-03-15T00:11:05.237Z,77.84
2018-03-15T00:11:46.101Z,77.84
2018-03-15T00:12:26.698Z,77.66
2018-03-15T00:13:07.017Z,78.13
2018-03-15T00:13:47.442Z,78.13
2018-03-15T00:16:07.514Z,78.13
2018-03-15T00:16:48.590Z,78.42
2018-03-15T00:17:29.074Z,78.42
2018-03-15T00:18:09.642Z,78.23
2018-03-15T00:18:49.866Z,78.8
2018-03-15T00:19:30.265Z,78.03
2018-03-15T00:20:10.870Z,78.8
2018-03-15T00:20:52.003Z,78.03
2018-03-15T00:21:32.764Z,78.32
2018-03-15T00:22:13.201Z,78.51
2018-03-15T00:22:54.470Z,77.84
2018-03-15T00:23:34.818Z,78.23
2018-03-15T00:24:15.675Z,78.23
2018-03-15T00:24:55.603Z,78.8
2018-03-15T00:25:36.256Z,78.23
2018-03-15T00:26:16.409Z,78.23
2018-03-15T00:26:57.559Z,78.42
2018-03-15T00:27:37.916Z,78.13
2018-03-15T00:28:18.635Z,78.32
2018-03-15T00:28:58.971Z,78.42
2018-03-15T00:29:39.390Z,78.32
2018-03-15T00:30:19.912Z,78.61
2018-03-15T00:31:00.229Z,78.32
2018-03-15T00:31:40.817Z,78.51
2018-03-15T00:32:21.209Z,78.89
2018-03-15T00:33:01.591Z,78.51
2018-03-15T00:33:42.216Z,78.32
2018-03-15T00:34:23.001Z,78.32
2018-03-15T00:35:03.428Z,78.61
2018-03-15T00:35:43.813Z,78.13
2018-03-15T00:36:24.519Z,78.8
2018-03-15T00:37:04.945Z,78.13
2018-03-15T00:37:45.503Z,78.8
2018-03-15T00:38:26.264Z,78.89
2018-03-15T00:39:06.304Z,78.8
2018-03-15T00:39:46.726Z,78.61
2018-03-15T00:40:27.228Z,78.89
2018-03-15T00:41:07.571Z,78.32
2018-03-15T00:41:48.721Z,78.61
2018-03-15T00:42:29.458Z,78.61
2018-03-15T00:43:10.932Z,78.99
2018-03-15T00:43:51.259Z,78.99
2018-03-15T00:44:31.837Z,78.89
2018-03-15T00:45:12.920Z,78.89
2018-03-15T00:45:53.393Z,78.99
2018-03-15T00:46:33.677Z,78.13
2018-03-15T00:47:14.132Z,77.94
2018-03-15T00:47:54.690Z,78.32
2018-03-15T00:48:35.381Z,78.8
2018-03-15T00:49:15.747Z,78.99
2018-03-15T00:49:56.119Z,78.89
2018-03-15T00:50:36.556Z,79.36
2018-03-15T00:51:17.378Z,79.27
2018-03-15T00:51:57.772Z,79.33
2018-03-15T00:52:38.390Z,79.33
2018-03-15T00:53:18.758Z,79.71
2018-03-15T00:53:59.377Z,80.03
2018-03-15T00:54:40.243Z,79.74
2018-03-15T00:55:20.573Z,79.9
2018-03-15T00:56:00.918Z,79.9
2018-03-15T00:56:41.658Z,80.08
2018-03-15T00:57:22.049Z,80.03
2018-03-15T00:58:02.477Z,79.9
2018-03-15T00:58:43.421Z,80.37
2018-03-15T00:59:23.552Z,80.37
2018-03-15T01:00:04.345Z,80.18
2018-03-15T01:00:45.083Z,80.13
2018-03-15T01:01:25.847Z,80.08
2018-03-15T01:02:06.173Z,79.84
2018-03-15T01:02:46.741Z,79.74
2018-03-15T01:03:27.251Z,80.08
2018-03-15T01:04:07.750Z,80.03
2018-03-15T01:04:48.220Z,79.74
2018-03-15T01:05:28.655Z,79.65
2018-03-15T01:06:09.603Z,79.71
2018-03-15T01:06:49.715Z,80.22
2018-03-15T01:07:30.408Z,79.8
2018-03-15T01:08:10.701Z,80.03
2018-03-15T01:08:51.170Z,80.13
2018-03-15T01:09:31.599Z,80.08
2018-03-15T01:10:12.091Z,79.99
2018-03-15T01:10:52.428Z,80.08
2018-03-15T01:11:32.850Z,79.94
2018-03-15T01:12:13.253Z,79.17
2018-03-15T01:12:53.625Z,79.71
2018-03-15T01:16:10.245Z,79.55
2018-03-15T01:16:52.074Z,79.61
2018-03-15T01:17:32.372Z,79.65
2018-03-15T01:18:12.720Z,79.27
2018-03-15T01:18:53.176Z,79.36
2018-03-15T01:19:33.851Z,78.7
2018-03-15T01:20:14.479Z,78.99
2018-03-15T01:20:55.005Z,78.8
2018-03-15T01:21:35.280Z,78.99
2018-03-15T01:22:15.664Z,79.46
2018-03-15T01:22:56.048Z,78.99
2018-03-15T01:23:36.471Z,79.55
2018-03-15T01:24:17.301Z,79.17
2018-03-15T01:24:57.420Z,79.08
2018-03-15T01:25:37.829Z,78.99
2018-03-15T01:26:18.257Z,78.99
2018-03-15T01:26:58.780Z,78.89
2018-03-15T01:27:39.167Z,78.7
2018-03-15T01:28:19.709Z,78.99
2018-03-15T01:29:00.213Z,78.99
2018-03-15T01:29:40.972Z,78.89
2018-03-15T01:30:21.320Z,79.17
2018-03-15T01:31:01.747Z,78.99
2018-03-15T01:31:42.348Z,79.17
2018-03-15T01:32:22.817Z,78.99
2018-03-15T01:34:35.843Z,78.89
2018-03-15T01:35:16.235Z,78.8
2018-03-15T01:35:56.616Z,78.89
2018-03-15T01:36:36.983Z,78.61
2018-03-15T01:37:17.420Z,78.7
2018-03-15T01:37:57.803Z,78.89
2018-03-15T01:38:38.197Z,79.08
2018-03-15T01:39:18.682Z,78.89
2018-03-15T01:39:59.062Z,78.89
2018-03-15T01:40:39.425Z,78.8
2018-03-15T01:41:19.790Z,78.89
2018-03-15T01:42:00.225Z,78.99
2018-03-15T01:42:40.578Z,78.61
2018-03-15T01:43:21.035Z,78.32
2018-03-15T01:44:01.438Z,78.42
2018-03-15T01:44:41.760Z,78.23
2018-03-15T01:45:22.138Z,78.32
2018-03-15T01:46:02.552Z,78.42
2018-03-15T01:46:42.930Z,78.23
2018-03-15T01:47:23.325Z,78.32
2018-03-15T01:48:03.683Z,78.13
2018-03-15T01:48:44.131Z,78.89
2018-03-15T01:49:24.544Z,78.8
2018-03-15T01:50:04.934Z,78.8
2018-03-15T01:50:45.331Z,78.61
2018-03-15T01:51:25.724Z,78.89
2018-03-15T01:52:06.117Z,78.8
2018-03-15T01:52:46.549Z,78.8
2018-03-15T01:53:26.953Z,79.14
2018-03-15T01:54:07.293Z,78.8
2018-03-15T01:54:47.717Z,78.8
2018-03-15T01:55:28.153Z,78.95
2018-03-15T01:56:08.497Z,79.23
2018-03-15T01:56:48.855Z,79.36
2018-03-15T01:57:29.279Z,78.51
2018-03-15T01:58:09.727Z,78.32
2018-03-15T01:58:50.076Z,78.23
2018-03-15T01:59:30.471Z,78.23
2018-03-15T02:00:10.873Z,78.8
2018-03-15T02:00:51.290Z,78.42
2018-03-15T02:01:31.652Z,78.32
2018-03-15T02:02:12.064Z,77.94
2018-03-15T02:02:52.402Z,78.89
2018-03-15T02:03:32.802Z,78.99
2018-03-15T02:04:13.171Z,78.13
2018-03-15T02:04:53.627Z,78.23
2018-03-15T02:05:34.019Z,78.32
2018-03-15T02:06:14.442Z,78.7
2018-03-15T02:06:54.790Z,78.13
2018-03-15T02:07:35.203Z,78.42
2018-03-15T02:08:15.571Z,78.23
2018-03-15T02:08:55.948Z,78.32
2018-03-15T02:09:36.325Z,78.32
2018-03-15T02:10:16.702Z,78.23
2018-03-15T02:10:57.137Z,78.32
2018-03-15T02:11:37.488Z,78.32
2018-03-15T02:12:17.931Z,78.23
2018-03-15T02:12:58.353Z,78.28
2018-03-15T02:13:38.728Z,78.32
2018-03-15T02:14:19.147Z,78.85
2018-03-15T02:14:59.482Z,78.7
2018-03-15T02:15:39.883Z,78.66
2018-03-15T02:16:20.248Z,79.23
2018-03-15T02:17:00.679Z,79.33
2018-03-15T02:17:41.054Z,78.85
2018-03-15T02:18:21.399Z,78.51
2018-03-15T02:19:01.839Z,78.8
2018-03-15T02:19:42.211Z,78.89
2018-03-15T02:20:22.623Z,78.99
2018-03-15T02:21:03.017Z,78.95
2018-03-15T02:21:43.412Z,78.89
2018-03-15T02:22:23.817Z,78.75
2018-03-15T02:23:04.176Z,78.95
2018-03-15T02:23:44.598Z,79.23
2018-03-15T02:24:25.009Z,78.99
2018-03-15T02:25:05.386Z,78.99
2018-03-15T02:25:45.747Z,78.89
2018-03-15T02:26:26.203Z,78.99
2018-03-15T02:27:06.559Z,78.95
2018-03-15T02:27:46.944Z,78.8
2018-03-15T02:28:27.376Z,78.75
2018-03-15T02:29:07.777Z,78.85
2018-03-15T02:29:48.119Z,78.95
2018-03-15T02:30:28.507Z,79.14
2018-03-15T02:31:08.940Z,78.85
2018-03-15T02:31:49.283Z,78.85
2018-03-15T02:32:29.686Z,78.95
2018-03-15T02:33:10.054Z,78.95
2018-03-15T02:35:29.504Z,78.75
2018-03-15T02:36:10.346Z,79.14
2018-03-15T02:36:50.949Z,78.95
2018-03-15T02:37:31.210Z,78.95
2018-03-15T02:38:12.517Z,78.75
2018-03-15T02:38:54.263Z,78.28
2018-03-15T02:39:34.778Z,78.85
2018-03-15T02:40:16.608Z,78.19
2018-03-15T02:40:57.417Z,78.42
2018-03-15T02:41:38.141Z,78.32
2018-03-15T02:42:20.998Z,77.94
2018-03-15T02:43:17.259Z,78.13
2018-03-15T02:44:01.085Z,78.61
2018-03-15T02:44:43.193Z,78.03
2018-03-15T02:45:23.969Z,78.03
2018-03-15T02:46:04.345Z,77.81
2018-03-15T02:46:45.646Z,77.66
2018-03-15T02:47:27.030Z,77.81
2018-03-15T02:48:08.374Z,77.47
2018-03-15T02:48:49.596Z,77.43
2018-03-15T02:49:30.665Z,77.75
2018-03-15T02:50:12.979Z,77.66
2018-03-15T02:50:53.776Z,77.84
2018-03-15T02:51:35.335Z,77.66
2018-03-15T02:52:17.702Z,78.03
2018-03-15T02:52:57.962Z,77.66
2018-03-15T02:53:40.182Z,77.66
2018-03-15T02:54:22.358Z,77.47
2018-03-15T02:55:03.742Z,77.62
2018-03-15T02:55:46.585Z,77.43
2018-03-15T02:56:28.936Z,77.47
2018-03-15T02:57:13.073Z,77.47
2018-03-15T02:57:54.231Z,77.14
2018-03-15T03:04:32.960Z,77.28
2018-03-15T03:05:17.736Z,77.09
2018-03-15T03:05:58.180Z,77.43
2018-03-15T03:06:38.864Z,77.43
2018-03-15T03:07:20.047Z,77.75
2018-03-15T03:08:01.698Z,77.62
2018-03-15T03:08:42.402Z,77.66
2018-03-15T03:09:23.265Z,77.14
2018-03-15T03:10:03.789Z,77.14
2018-03-15T03:10:45.167Z,77.43
2018-03-15T03:11:26.124Z,77.71
2018-03-15T03:12:06.625Z,77.43
2018-03-15T03:12:47.589Z,77.81
2018-03-15T03:13:27.896Z,77.71
2018-03-15T03:14:08.664Z,77.33
2018-03-15T03:14:49.780Z,77.62
2018-03-15T03:15:30.715Z,77.71
2018-03-15T03:16:11.584Z,77.24
2018-03-15T03:16:52.088Z,77.62
2018-03-15T03:17:32.638Z,77.62
2018-03-15T03:18:12.873Z,77.33
2018-03-15T03:18:54.201Z,77.43
2018-03-15T03:19:34.754Z,77.33
2018-03-15T03:20:15.271Z,77.43
2018-03-15T03:20:55.933Z,77.62
2018-03-15T03:21:36.398Z,77.52
2018-03-15T03:22:18.612Z,77.62
2018-03-15T03:22:59.599Z,77.81
2018-03-15T03:23:40.088Z,77.9
2018-03-15T03:24:21.000Z,78.09
2018-03-15T03:25:03.105Z,77.71
2018-03-15T03:25:42.970Z,77.71
2018-03-15T03:26:23.511Z,77.43
2018-03-15T03:27:03.956Z,77.43
2018-03-15T03:27:45.127Z,78
2018-03-15T03:28:25.766Z,77.9
2018-03-15T03:29:07.212Z,77.62
2018-03-15T03:29:47.988Z,78
2018-03-15T03:30:28.121Z,77.62
2018-03-15T03:31:09.202Z,77.24
2018-03-15T03:31:50.252Z,77.24
2018-03-15T03:32:30.839Z,77.14
2018-03-15T03:33:11.703Z,76.95
2018-03-15T03:33:52.267Z,77.33
2018-03-15T03:34:33.874Z,76.95
2018-03-15T03:35:15.347Z,77.24
2018-03-15T03:35:55.770Z,77.43
2018-03-15T03:36:37.200Z,77.14
2018-03-15T03:43:22.901Z,77.05
2018-03-15T03:44:03.855Z,77.05
2018-03-15T03:44:44.270Z,77.33
2018-03-15T03:45:24.698Z,77.33
2018-03-15T03:46:05.326Z,77.05
2018-03-15T03:46:45.704Z,77.05
2018-03-15T03:49:45.238Z,77.43
2018-03-15T03:50:27.462Z,77.33
2018-03-15T03:51:07.969Z,77.14
2018-03-15T03:51:48.611Z,77.33
2018-03-15T03:52:30.080Z,76.76
2018-03-15T03:53:11.149Z,77.71
2018-03-15T03:53:51.366Z,77.24
2018-03-15T03:54:31.994Z,77.52
2018-03-15T03:55:12.426Z,77.33
2018-03-15T03:55:52.794Z,77.62
2018-03-15T03:56:33.377Z,77.62
2018-03-15T03:57:13.985Z,77.71
2018-03-15T03:57:54.400Z,77.9
2018-03-15T03:58:34.871Z,77.14
2018-03-15T03:59:15.185Z,77.62
2018-03-15T03:59:55.588Z,77.62
2018-03-15T04:00:36.099Z,77.81
2018-03-15T04:01:16.715Z,77.14
2018-03-15T04:01:57.398Z,77.14
2018-03-15T04:02:37.930Z,77.05
2018-03-15T04:03:18.297Z,77.14
2018-03-15T04:03:58.720Z,77.05
2018-03-15T04:04:39.318Z,76.86
2018-03-15T04:05:19.577Z,77.71
2018-03-15T04:06:00.072Z,76.95
2018-03-15T04:06:40.413Z,77.33
2018-03-15T04:07:21.005Z,77.33
2018-03-15T04:08:01.938Z,77.33
2018-03-15T04:49:50.976Z,78.75
2018-03-15T04:50:33.390Z,78.28
2018-03-15T04:51:13.701Z,78
2018-03-15T04:51:54.157Z,77.33
2018-03-15T04:52:34.627Z,77.52
2018-03-15T04:53:15.094Z,77.43
2018-03-15T04:53:55.687Z,77.24
2018-03-15T04:54:36.200Z,76.95
2018-03-15T04:55:17.354Z,77.56
2018-03-15T04:55:57.353Z,76.29
2018-03-15T04:56:37.925Z,76.67
2018-03-15T04:57:18.317Z,77.43
2018-03-15T04:59:12.141Z,77.43
2018-03-15T04:59:52.519Z,77.14
2018-03-15T05:00:32.927Z,76.2
2018-03-15T05:01:13.316Z,76.9
2018-03-15T05:01:53.688Z,75.85
2018-03-15T05:02:34.112Z,76.61
2018-03-15T05:03:14.503Z,77.09
2018-03-15T05:03:54.881Z,77.18
2018-03-15T05:04:35.288Z,77.75
2018-03-15T05:05:15.725Z,76.23
2018-03-15T05:05:56.122Z,74.81
2018-03-15T05:06:36.538Z,76.42
2018-03-15T05:07:16.949Z,76.8
2018-03-15T05:07:57.360Z,74.81
2018-03-15T05:08:37.761Z,76.8
2018-03-15T05:09:18.214Z,77.18
2018-03-15T05:09:58.672Z,76.04
2018-03-15T05:10:39.073Z,76.61
2018-03-15T05:11:19.441Z,77.47
2018-03-15T05:11:59.793Z,76.71
2018-03-15T05:12:40.325Z,76.9
2018-03-15T05:13:20.677Z,75.85
2018-03-15T05:14:01.050Z,74.9
2018-03-15T05:14:41.500Z,75.85
2018-03-15T05:15:21.872Z,74.52
2018-03-15T05:16:02.264Z,75.28
2018-03-15T05:16:42.644Z,74.81
2018-03-15T05:17:23.034Z,75
2018-03-15T05:18:03.415Z,75.47
2018-03-15T05:18:43.848Z,74.62
2018-03-15T05:19:24.209Z,74.81
2018-03-15T05:20:04.636Z,74.33
2018-03-15T05:20:44.973Z,73.96
2018-03-15T05:21:25.409Z,74.24
2018-03-15T05:22:05.751Z,75.67
2018-03-15T05:22:46.195Z,75.95
2018-03-15T05:23:26.565Z,75.24
2018-03-15T05:24:06.990Z,75.05
2018-03-15T05:24:47.513Z,76.99
2018-03-15T05:25:27.907Z,77.94
2018-03-15T05:26:08.329Z,76.32
2018-03-15T05:26:48.732Z,74.9
2018-03-15T05:27:29.186Z,75.91
2018-03-15T05:28:09.525Z,77.28
2018-03-15T05:28:49.905Z,75.85
2018-03-15T05:29:30.357Z,75.72
2018-03-15T05:30:10.764Z,76.14
2018-03-15T05:30:51.152Z,76.23
2018-03-15T05:31:31.534Z,75.95
2018-03-15T05:32:11.940Z,76.9
2018-03-15T05:32:52.368Z,77.28
2018-03-15T05:33:32.772Z,76.04
2018-03-15T05:34:13.151Z,75.57
2018-03-15T05:34:53.570Z,76.04
2018-03-15T05:35:33.986Z,75.76
2018-03-15T05:36:14.451Z,74.9
2018-03-15T05:36:54.829Z,74.71
2018-03-15T05:37:35.175Z,76.9
2018-03-15T05:38:15.585Z,75.85
2018-03-15T05:38:56.019Z,75.47
2018-03-15T05:39:36.394Z,76.04
2018-03-15T05:40:16.770Z,75.19
2018-03-15T05:40:57.180Z,74.52
2018-03-15T05:41:37.598Z,74.52
2018-03-15T05:42:17.991Z,74.05
2018-03-15T05:42:58.382Z,75.76
2018-03-15T05:43:38.823Z,75
2018-03-15T05:44:19.163Z,73.48
2018-03-15T05:44:59.579Z,72.81
2018-03-15T05:45:39.977Z,73.57
2018-03-15T05:46:20.371Z,74.71
2018-03-15T05:47:00.833Z,74.24
2018-03-15T05:47:41.247Z,74.81
2018-03-15T05:48:21.610Z,75.95
2018-03-15T05:49:02.009Z,74.24
2018-03-15T05:49:42.462Z,73.57
2018-03-15T05:50:22.846Z,73.38
2018-03-15T05:51:03.251Z,74.71
2018-03-15T06:00:58.798Z,73.76
2018-03-15T06:01:39.236Z,73.92
2018-03-15T06:02:19.566Z,73.86
2018-03-15T06:03:00.004Z,73.48
2018-03-15T06:03:40.341Z,73.67
2018-03-15T06:04:20.751Z,74.81
2018-03-15T06:05:01.188Z,74.15
2018-03-15T06:05:41.545Z,73.57
2018-03-15T06:06:21.937Z,72.72
2018-03-15T06:07:02.328Z,72.91
2018-03-15T06:07:42.745Z,72.63
2018-03-15T06:08:23.106Z,72.81
2018-03-15T06:09:03.555Z,72.44
2018-03-15T06:09:43.899Z,73
2018-03-15T06:10:24.331Z,73.14
2018-03-15T06:11:04.738Z,72.44
2018-03-15T06:11:45.116Z,72.09
2018-03-15T06:12:25.556Z,71.71
2018-03-15T06:13:05.954Z,72
2018-03-15T06:13:46.359Z,71.71
2018-03-15T06:14:26.790Z,72
2018-03-15T06:15:07.108Z,72.66
2018-03-15T06:15:47.537Z,72.19
2018-03-15T06:16:27.930Z,71.04
2018-03-15T06:18:27.930Z,71.37
2018-03-15T06:19:08.308Z,70.61
2018-03-15T06:19:48.731Z,68.99
2018-03-15T06:20:29.138Z,69.56
2018-03-15T06:22:42.040Z,69.37
2018-03-15T06:23:22.427Z,68.8
2018-03-15T06:24:02.812Z,69.24
2018-03-15T06:24:43.170Z,69.24
2018-03-15T06:25:23.584Z,70.32
2018-03-15T06:26:03.976Z,70.51
2018-03-15T06:26:44.369Z,69.75
2018-03-15T06:27:24.779Z,69.37
2018-03-15T06:28:05.194Z,67.85
2018-03-15T06:28:45.547Z,67.28
2018-03-15T06:29:25.992Z,68.33
2018-03-15T06:30:06.398Z,69.37
2018-03-15T06:30:46.800Z,69.46
2018-03-15T06:31:27.368Z,70.13
2018-03-15T06:32:07.638Z,69.18
2018-03-15T06:32:48.047Z,69.37
2018-03-15T06:33:28.472Z,68.71
2018-03-15T06:34:11.095Z,68.71
2018-03-15T06:34:50.590Z,68.33
2018-03-15T06:35:31.024Z,68.42
2018-03-15T06:36:11.417Z,69.37
2018-03-15T06:36:51.839Z,68.13
2018-03-15T06:37:32.233Z,68.23
2018-03-15T06:38:12.765Z,68.46
2018-03-15T06:38:53.140Z,67.94
2018-03-15T06:39:33.570Z,67.94
2018-03-15T06:40:13.988Z,67.85
2018-03-15T06:40:54.536Z,68.52
2018-03-15T06:41:35.072Z,68.71
2018-03-15T06:42:15.498Z,69.34
2018-03-15T06:42:56.004Z,70.38
2018-03-15T06:44:43.914Z,71.23
2018-03-15T06:45:26.086Z,71.14
2018-03-15T06:46:06.595Z,71.71
2018-03-15T06:46:47.021Z,71.9
2018-03-15T06:47:27.580Z,72.95
2018-03-15T06:48:08.682Z,72.38
2018-03-15T06:48:48.861Z,71.33
2018-03-15T06:49:29.414Z,71.14
2018-03-15T06:50:10.703Z,71.81
2018-03-15T06:52:29.194Z,72.75
2018-03-15T06:53:09.699Z,72.38
2018-03-15T06:53:49.913Z,71.66
2018-03-15T06:54:30.331Z,70.89
2018-03-15T06:55:10.732Z,69.66
2018-03-15T06:55:51.156Z,70.13
2018-03-15T06:56:31.604Z,70.23
2018-03-15T06:57:12.007Z,69.46
2018-03-15T06:57:52.437Z,69.09
2018-03-15T06:58:32.822Z,69.31
2018-03-15T06:59:13.220Z,68.74
2018-03-15T06:59:53.812Z,68.65
2018-03-15T07:00:34.233Z,67.44
2018-03-15T07:01:14.641Z,65.83
2018-03-15T07:01:54.999Z,65.06
2018-03-15T07:02:35.435Z,64.87
2018-03-15T07:03:15.872Z,63.54
2018-03-15T07:03:56.217Z,63.26
2018-03-15T07:04:36.612Z,64.02
2018-03-15T07:05:17.036Z,63.45
2018-03-15T07:05:57.434Z,63.73
2018-03-15T07:06:37.767Z,64.31
2018-03-15T07:07:18.183Z,63.54
2018-03-15T07:07:58.682Z,63.54
2018-03-15T07:08:39.045Z,63.64
2018-03-15T07:09:19.599Z,62.49
2018-03-15T07:10:00.031Z,62.97
2018-03-15T07:10:40.465Z,62.4
2018-03-15T07:11:20.924Z,62.59
2018-03-15T07:12:01.375Z,63.73
2018-03-15T07:12:41.767Z,64.21
2018-03-15T07:13:22.235Z,64.59
2018-03-15T07:14:02.632Z,63.54
2018-03-15T07:14:43.372Z,63.92
2018-03-15T07:15:23.518Z,64.69
2018-03-15T07:16:03.895Z,64.78
2018-03-15T07:16:44.349Z,63.54
2018-03-15T07:17:24.802Z,63.45
2018-03-15T07:18:05.159Z,63.54
2018-03-15T07:18:45.645Z,63.73
2018-03-15T07:19:40.626Z,63.54
2018-03-15T07:20:21.037Z,63.35
2018-03-15T07:21:01.637Z,64.5
2018-03-15T07:21:41.929Z,64.4
2018-03-15T07:22:22.462Z,63.64
2018-03-15T07:23:02.798Z,63.73
2018-03-15T07:23:43.166Z,64.11
2018-03-15T07:24:23.566Z,64.84
2018-03-15T07:25:04.022Z,65.32
2018-03-15T07:25:44.337Z,65.13
2018-03-15T07:26:24.771Z,65.03
2018-03-15T07:27:05.201Z,65.22
2018-03-15T07:27:45.647Z,65.7
2018-03-15T07:28:26.066Z,65.13
2018-03-15T07:29:06.591Z,65.51
2018-03-15T07:29:48.032Z,65.99
2018-03-15T07:32:02.308Z,66.65
2018-03-15T07:32:42.224Z,66.27
2018-03-15T07:33:22.613Z,67.13
2018-03-15T07:34:03.026Z,66.74
2018-03-15T07:34:43.450Z,66.55
2018-03-15T07:35:23.794Z,66.74
2018-03-15T07:36:04.222Z,65.99
2018-03-15T07:36:44.648Z,66.65
2018-03-15T07:37:25.028Z,65.99
2018-03-15T07:38:05.502Z,65.99
2018-03-15T07:38:45.870Z,65.7
2018-03-15T07:39:26.249Z,65.99
2018-03-15T07:40:06.663Z,66.55
2018-03-15T07:40:47.020Z,66.9
2018-03-15T07:41:27.426Z,67.57
2018-03-15T07:42:07.842Z,67.28
2018-03-15T07:42:48.303Z,67.09
2018-03-15T07:43:28.694Z,67.19
2018-03-15T07:44:09.078Z,67.66
2018-03-15T07:44:49.537Z,67.85
2018-03-15T07:45:29.932Z,67.6
2018-03-15T07:46:10.320Z,66.84
2018-03-15T07:46:50.709Z,67.13
2018-03-15T07:47:31.121Z,67.22
2018-03-15T07:48:11.506Z,66.94
2018-03-15T07:48:51.938Z,67.09
2018-03-15T07:49:32.366Z,67.09
2018-03-15T07:50:12.777Z,67.66
2018-03-15T07:50:53.150Z,68.13
2018-03-15T07:51:33.549Z,67.88
2018-03-15T07:52:14.373Z,67.69
2018-03-15T07:52:54.798Z,67.32
2018-03-15T07:53:35.216Z,67.69
2018-03-15T07:54:15.574Z,67.79
2018-03-15T07:54:56.015Z,66.46
2018-03-15T07:55:36.455Z,65.7
2018-03-15T07:56:16.887Z,66.02
2018-03-15T07:56:57.335Z,65.13
2018-03-15T07:57:37.830Z,65.51
2018-03-15T07:58:18.176Z,65.6
2018-03-15T07:58:58.583Z,66.17
2018-03-15T07:59:39.042Z,65.99
2018-03-15T08:00:19.470Z,65.54
2018-03-15T08:00:59.885Z,65.45
2018-03-15T08:01:40.414Z,65.45
2018-03-15T08:02:20.875Z,64.87
2018-03-15T08:03:01.360Z,65.06
2018-03-15T08:03:41.775Z,64.5
2018-03-15T08:04:22.227Z,64.59
2018-03-15T08:05:02.608Z,64.87
2018-03-15T08:05:43.121Z,65.73
2018-03-15T08:06:23.541Z,65.45
2018-03-15T08:07:03.869Z,64.87
2018-03-15T08:07:44.351Z,64.59
2018-03-15T08:08:24.798Z,64.97
2018-03-15T08:09:05.184Z,64.87
2018-03-15T08:09:45.626Z,64.4
2018-03-15T08:10:26.371Z,64.65
2018-03-15T08:11:07.299Z,65.51
2018-03-15T08:11:47.796Z,65.41
2018-03-15T08:14:44.455Z,66.49
2018-03-15T08:15:22.994Z,65.16
2018-03-15T08:16:04.143Z,64.11
2018-03-15T08:16:44.527Z,63.64
2018-03-15T08:17:25.218Z,63.45
2018-03-15T08:18:05.665Z,63.64
2018-03-15T08:18:46.231Z,63.2
2018-03-15T08:19:26.925Z,63.54
2018-03-15T08:20:07.441Z,62.88
2018-03-15T08:20:47.790Z,63.45
2018-03-15T08:21:28.221Z,64.31
2018-03-15T08:22:08.573Z,64.59
2018-03-15T08:22:49.225Z,64.5
2018-03-15T08:23:29.855Z,64.11
2018-03-15T08:24:10.480Z,64.05
2018-03-15T08:24:51.012Z,62.69
2018-03-15T08:25:32.651Z,62.69
2018-03-15T08:26:12.421Z,62.97
2018-03-15T08:26:53.107Z,63.45
2018-03-15T08:27:33.492Z,63.35
2018-03-15T08:28:14.421Z,63.54
2018-03-15T08:28:54.907Z,64.24
2018-03-15T08:29:35.161Z,63.29
2018-03-15T08:30:17.380Z,62.72
2018-03-15T08:30:59.269Z,62.85
2018-03-15T08:31:41.129Z,60.94
2018-03-15T08:32:21.346Z,60.75
2018-03-15T08:33:02.404Z,61.1
2018-03-15T08:33:42.777Z,61.48
2018-03-15T08:34:23.223Z,62.34
2018-03-15T08:35:03.601Z,62.24
2018-03-15T08:35:45.044Z,62.53
2018-03-15T08:36:25.296Z,62.49
2018-03-15T08:37:05.785Z,62.72
2018-03-15T08:37:47.075Z,62.91
2018-03-15T08:38:27.503Z,62.62
2018-03-15T08:39:07.909Z,62.43
2018-03-15T08:39:49.408Z,62.69
2018-03-15T08:40:29.835Z,63.26
2018-03-15T08:41:10.481Z,62.97
2018-03-15T08:41:50.662Z,63.07
2018-03-15T08:42:31.156Z,62.97
2018-03-15T08:43:11.630Z,63.45
2018-03-15T08:43:52.056Z,62.78
2018-03-15T08:44:32.601Z,62.81
2018-03-15T08:45:13.259Z,63.01
2018-03-15T08:45:53.876Z,62.53
2018-03-15T08:46:34.446Z,62.43
2018-03-15T08:47:16.237Z,62.53
2018-03-15T08:47:56.630Z,62.53
2018-03-15T08:48:38.085Z,61.48
2018-03-15T08:49:19.508Z,61.48
2018-03-15T08:49:59.996Z,62.24
2018-03-15T08:50:41.645Z,62.43
2018-03-15T08:51:21.700Z,62.43
2018-03-15T08:52:02.266Z,62.81
2018-03-15T08:52:43.558Z,62.43
2018-03-15T08:53:23.889Z,62.34
2018-03-15T08:54:04.299Z,61.58
2018-03-15T08:54:44.689Z,61.29
2018-03-15T08:55:25.604Z,61.1
2018-03-15T08:56:05.658Z,61.19
2018-03-15T08:56:46.042Z,61.1
2018-03-15T08:57:26.511Z,61.29
2018-03-15T08:58:08.808Z,61.1
2018-03-15T08:58:49.205Z,61.29
2018-03-15T08:59:30.117Z,61.58
2018-03-15T09:00:10.712Z,62.62
2018-03-15T09:00:50.147Z,62.15
2018-03-15T09:01:30.649Z,62.62
2018-03-15T09:02:11.098Z,62.15
2018-03-15T09:02:51.538Z,61.77
2018-03-15T09:03:32.326Z,60.91
2018-03-15T09:04:12.847Z,61
2018-03-15T09:04:53.351Z,61
2018-03-15T09:05:33.947Z,60.91
2018-03-15T09:06:14.570Z,61.19
2018-03-15T09:06:55.584Z,61.29
2018-03-15T09:07:36.110Z,61.86
2018-03-15T09:08:16.704Z,61.67
2018-03-15T09:08:57.075Z,61.29
2018-03-15T09:09:37.572Z,61.04
2018-03-15T09:10:18.031Z,60.66
2018-03-15T09:10:58.593Z,60.08
2018-03-15T09:11:39.158Z,60.46
2018-03-15T09:12:19.388Z,60.46
2018-03-15T09:13:00.077Z,60.08
2018-03-15T09:13:40.381Z,59.99
2018-03-15T09:14:21.647Z,60.08
2018-03-15T09:15:02.113Z,59.89
2018-03-15T09:15:43.554Z,59.7
2018-03-15T09:16:23.967Z,60.08
2018-03-15T09:17:04.579Z,60.08
2018-03-15T09:17:44.919Z,60.37
2018-03-15T09:18:25.625Z,60.85
2018-03-15T09:19:05.956Z,59.89
2018-03-15T09:19:46.483Z,59.51
2018-03-15T09:20:27.817Z,59.61
2018-03-15T09:21:08.444Z,59.03
2018-03-15T09:21:49.573Z,59.32
2018-03-15T09:22:31.232Z,59.7
2018-03-15T09:23:11.712Z,60.18
2018-03-15T09:23:52.318Z,60.37
2018-03-15T09:24:32.740Z,60.18
2018-03-15T09:25:13.466Z,60.56
2018-03-15T09:25:55.850Z,59.8
2018-03-15T09:26:36.652Z,59.8
2018-03-15T09:27:16.677Z,59.23
2018-03-15T09:27:57.317Z,58.94
2018-03-15T09:28:38.550Z,58.94
2018-03-15T09:29:19.135Z,59.42
2018-03-15T09:30:00.057Z,59.45
2018-03-15T09:30:41.078Z,59.06
2018-03-15T09:31:21.779Z,58.4
2018-03-15T09:32:02.357Z,57.64
2018-03-15T09:32:42.730Z,58.11
2018-03-15T09:33:23.471Z,58.08
2018-03-15T09:34:03.910Z,58.56
2018-03-15T09:34:44.546Z,58.56
2018-03-15T09:35:25.074Z,58.84
2018-03-15T09:36:05.549Z,59.32
2018-03-15T09:36:46.146Z,58.84
2018-03-15T09:37:27.713Z,59.13
2018-03-15T09:38:08.551Z,58.94
2018-03-15T09:38:48.939Z,59.03
2018-03-15T09:39:29.623Z,59.03
2018-03-15T09:40:10.636Z,58.37
2018-03-15T09:40:51.020Z,58.65
2018-03-15T09:41:31.660Z,58.65
2018-03-15T09:42:12.436Z,58.94
2018-03-15T09:42:53.551Z,59.03
2018-03-15T09:43:34.282Z,58.94
2018-03-15T09:44:16.105Z,58.75
2018-03-15T09:44:56.366Z,58.28
2018-03-15T09:45:36.853Z,58.28
2018-03-15T09:46:21.190Z,58.56
2018-03-15T09:47:02.140Z,58.65
2018-03-15T09:47:43.484Z,59.32
2018-03-15T09:48:23.583Z,58.5
2018-03-15T09:49:04.418Z,58.3
2018-03-15T09:49:44.739Z,57.92
2018-03-15T09:50:25.532Z,57.28
2018-03-15T09:51:05.646Z,57
2018-03-15T09:51:46.163Z,56.81
2018-03-15T09:52:26.609Z,56.62
2018-03-15T09:53:08.048Z,56.14
2018-03-15T09:53:48.342Z,56.24
2018-03-15T09:54:29.144Z,56.04
2018-03-15T09:55:09.472Z,56.33
2018-03-15T09:55:50.066Z,56.14
2018-03-15T09:56:30.656Z,56.71
2018-03-15T09:57:12.059Z,56.24
2018-03-15T09:57:52.453Z,55.85
2018-03-15T09:58:33.161Z,56.33
2018-03-15T09:59:13.490Z,55.95
2018-03-15T09:59:54.056Z,56.43
2018-03-15T10:00:34.651Z,56.24
2018-03-15T10:01:15.129Z,55.95
2018-03-15T10:01:55.720Z,56.33
2018-03-15T10:02:36.482Z,56.71
2018-03-15T10:03:16.549Z,56.43
2018-03-15T10:03:56.980Z,56.24
2018-03-15T10:04:37.537Z,56.14
2018-03-15T10:05:18.648Z,55.85
2018-03-15T10:05:59.075Z,56.43
2018-03-15T10:06:40.181Z,56.14
2018-03-15T10:07:21.493Z,56.24
2018-03-15T10:08:01.910Z,56.71
2018-03-15T10:08:42.317Z,56.43